sensor_id;sensor_type;location;lat;lon;timestamp;P1;durP1;ratioP1;P2;durP2;ratioP2
787;SDS011;16074;42.708;23.312;2023-04-25T00:00:26;7.20;;;6.25;;
787;SDS011;16074;42.708;23.312;2023-04-25T00:02:54;6.45;;;5.90;;
787;SDS011;16074;42.708;23.312;2023-04-25T00:05:24;8.02;;;7.25;;
787;SDS011;16074;42.708;23.312;2023-04-25T00:07:53;8.88;;;6.90;;
787;SDS011;16074;42.708;23.312;2023-04-25T00:10:22;6.88;;;6.22;;
787;SDS011;16074;42.708;23.312;2023-04-25T00:12:51;8.27;;;7.55;;
787;SDS011;16074;42.708;23.312;2023-04-25T00:15:19;7.78;;;6.30;;
787;SDS011;16074;42.708;23.312;2023-04-25T00:17:47;6.55;;;6.05;;
787;SDS011;16074;42.708;23.312;2023-04-25T00:20:16;7.90;;;7.20;;
787;SDS011;16074;42.708;23.312;2023-04-25T00:22:44;8.40;;;7.60;;
787;SDS011;16074;42.708;23.312;2023-04-25T00:25:14;8.23;;;7.45;;
787;SDS011;16074;42.708;23.312;2023-04-25T00:27:42;11.25;;;8.23;;
787;SDS011;16074;42.708;23.312;2023-04-25T00:30:12;9.13;;;7.70;;
787;SDS011;16074;42.708;23.312;2023-04-25T00:32:41;9.35;;;7.88;;
787;SDS011;16074;42.708;23.312;2023-04-25T00:35:09;8.95;;;8.13;;
787;SDS011;16074;42.708;23.312;2023-04-25T00:37:37;8.35;;;7.50;;
787;SDS011;16074;42.708;23.312;2023-04-25T00:40:06;10.18;;;8.57;;
787;SDS011;16074;42.708;23.312;2023-04-25T00:42:36;9.73;;;8.73;;
787;SDS011;16074;42.708;23.312;2023-04-25T00:45:05;11.90;;;8.93;;
787;SDS011;16074;42.708;23.312;2023-04-25T00:47:35;9.73;;;8.73;;
787;SDS011;16074;42.708;23.312;2023-04-25T00:50:04;9.43;;;8.45;;
787;SDS011;16074;42.708;23.312;2023-04-25T00:52:33;9.60;;;8.70;;
787;SDS011;16074;42.708;23.312;2023-04-25T00:55:02;9.38;;;8.48;;
787;SDS011;16074;42.708;23.312;2023-04-25T00:57:31;11.73;;;9.27;;
787;SDS011;16074;42.708;23.312;2023-04-25T01:00:01;9.70;;;8.70;;
787;SDS011;16074;42.708;23.312;2023-04-25T01:02:32;12.55;;;9.20;;
787;SDS011;16074;42.708;23.312;2023-04-25T01:05:01;12.05;;;10.85;;
787;SDS011;16074;42.708;23.312;2023-04-25T01:07:30;11.10;;;9.82;;
787;SDS011;16074;42.708;23.312;2023-04-25T01:09:58;9.52;;;8.52;;
787;SDS011;16074;42.708;23.312;2023-04-25T01:12:27;11.35;;;10.25;;
787;SDS011;16074;42.708;23.312;2023-04-25T01:14:55;11.50;;;9.23;;
787;SDS011;16074;42.708;23.312;2023-04-25T01:17:25;11.38;;;9.75;;
787;SDS011;16074;42.708;23.312;2023-04-25T01:19:54;10.95;;;9.85;;
787;SDS011;16074;42.708;23.312;2023-04-25T01:22:23;11.18;;;10.02;;
787;SDS011;16074;42.708;23.312;2023-04-25T01:24:52;9.60;;;8.55;;
787;SDS011;16074;42.708;23.312;2023-04-25T01:27:21;13.50;;;10.50;;
787;SDS011;16074;42.708;23.312;2023-04-25T01:29:50;10.63;;;9.13;;
787;SDS011;16074;42.708;23.312;2023-04-25T01:32:19;10.80;;;9.77;;
787;SDS011;16074;42.708;23.312;2023-04-25T01:34:47;9.35;;;8.55;;
787;SDS011;16074;42.708;23.312;2023-04-25T01:37:16;10.07;;;8.90;;
787;SDS011;16074;42.708;23.312;2023-04-25T01:39:46;8.98;;;8.10;;
787;SDS011;16074;42.708;23.312;2023-04-25T01:42:15;10.90;;;8.95;;
787;SDS011;16074;42.708;23.312;2023-04-25T01:44:43;9.50;;;8.60;;
787;SDS011;16074;42.708;23.312;2023-04-25T01:47:11;11.50;;;10.10;;
787;SDS011;16074;42.708;23.312;2023-04-25T01:49:40;10.82;;;9.68;;
787;SDS011;16074;42.708;23.312;2023-04-25T01:52:08;9.38;;;8.57;;
787;SDS011;16074;42.708;23.312;2023-04-25T01:54:37;12.68;;;10.00;;
787;SDS011;16074;42.708;23.312;2023-04-25T01:57:06;9.10;;;7.70;;
787;SDS011;16074;42.708;23.312;2023-04-25T01:59:36;9.98;;;8.85;;
787;SDS011;16074;42.708;23.312;2023-04-25T02:02:12;9.65;;;8.75;;
787;SDS011;16074;42.708;23.312;2023-04-25T02:04:42;8.57;;;7.82;;
787;SDS011;16074;42.708;23.312;2023-04-25T02:07:12;8.43;;;7.70;;
787;SDS011;16074;42.708;23.312;2023-04-25T02:09:48;8.23;;;7.25;;
787;SDS011;16074;42.708;23.312;2023-04-25T02:12:19;8.40;;;7.60;;
787;SDS011;16074;42.708;23.312;2023-04-25T02:15:08;10.63;;;8.10;;
787;SDS011;16074;42.708;23.312;2023-04-25T02:17:47;9.30;;;8.30;;
787;SDS011;16074;42.708;23.312;2023-04-25T02:20:15;8.50;;;7.70;;
787;SDS011;16074;42.708;23.312;2023-04-25T02:22:44;9.07;;;8.20;;
787;SDS011;16074;42.708;23.312;2023-04-25T02:25:12;9.48;;;8.10;;
787;SDS011;16074;42.708;23.312;2023-04-25T02:27:42;9.80;;;8.52;;
787;SDS011;16074;42.708;23.312;2023-04-25T02:30:10;9.55;;;8.63;;
787;SDS011;16074;42.708;23.312;2023-04-25T02:32:39;10.30;;;9.30;;
787;SDS011;16074;42.708;23.312;2023-04-25T02:35:08;8.70;;;7.82;;
787;SDS011;16074;42.708;23.312;2023-04-25T02:37:38;10.18;;;8.80;;
787;SDS011;16074;42.708;23.312;2023-04-25T02:40:07;9.27;;;8.30;;
787;SDS011;16074;42.708;23.312;2023-04-25T02:42:36;9.75;;;8.85;;
787;SDS011;16074;42.708;23.312;2023-04-25T02:45:06;10.07;;;9.10;;
787;SDS011;16074;42.708;23.312;2023-04-25T02:47:35;9.18;;;8.27;;
787;SDS011;16074;42.708;23.312;2023-04-25T02:50:04;9.45;;;8.55;;
787;SDS011;16074;42.708;23.312;2023-04-25T02:52:33;10.07;;;9.07;;
787;SDS011;16074;42.708;23.312;2023-04-25T02:55:09;8.40;;;7.55;;
787;SDS011;16074;42.708;23.312;2023-04-25T02:57:38;9.98;;;8.98;;
787;SDS011;16074;42.708;23.312;2023-04-25T03:00:12;10.85;;;9.82;;
787;SDS011;16074;42.708;23.312;2023-04-25T03:02:41;10.68;;;9.55;;
787;SDS011;16074;42.708;23.312;2023-04-25T03:05:10;9.80;;;8.80;;
787;SDS011;16074;42.708;23.312;2023-04-25T03:07:38;10.85;;;9.75;;
787;SDS011;16074;42.708;23.312;2023-04-25T03:10:09;10.60;;;9.52;;
787;SDS011;16074;42.708;23.312;2023-04-25T03:12:38;11.15;;;9.65;;
787;SDS011;16074;42.708;23.312;2023-04-25T03:15:06;10.55;;;9.43;;
787;SDS011;16074;42.708;23.312;2023-04-25T03:17:36;10.27;;;8.85;;
787;SDS011;16074;42.708;23.312;2023-04-25T03:20:05;10.27;;;9.30;;
787;SDS011;16074;42.708;23.312;2023-04-25T03:22:35;9.85;;;8.80;;
787;SDS011;16074;42.708;23.312;2023-04-25T03:25:04;10.65;;;9.55;;
787;SDS011;16074;42.708;23.312;2023-04-25T03:27:34;10.85;;;9.05;;
787;SDS011;16074;42.708;23.312;2023-04-25T03:30:02;11.73;;;10.63;;
787;SDS011;16074;42.708;23.312;2023-04-25T03:32:31;10.30;;;9.30;;
787;SDS011;16074;42.708;23.312;2023-04-25T03:35:01;10.05;;;9.05;;
787;SDS011;16074;42.708;23.312;2023-04-25T03:37:30;15.23;;;11.30;;
787;SDS011;16074;42.708;23.312;2023-04-25T03:39:59;10.88;;;9.80;;
787;SDS011;16074;42.708;23.312;2023-04-25T03:42:45;11.23;;;9.77;;
787;SDS011;16074;42.708;23.312;2023-04-25T03:45:14;11.32;;;9.88;;
787;SDS011;16074;42.708;23.312;2023-04-25T03:47:42;11.30;;;10.20;;
787;SDS011;16074;42.708;23.312;2023-04-25T03:50:12;11.95;;;10.63;;
787;SDS011;16074;42.708;23.312;2023-04-25T03:52:40;12.30;;;11.05;;
787;SDS011;16074;42.708;23.312;2023-04-25T03:55:09;12.70;;;11.50;;
787;SDS011;16074;42.708;23.312;2023-04-25T03:57:38;11.68;;;10.45;;
787;SDS011;16074;42.708;23.312;2023-04-25T04:00:07;14.30;;;12.73;;
787;SDS011;16074;42.708;23.312;2023-04-25T04:02:38;13.27;;;11.95;;
787;SDS011;16074;42.708;23.312;2023-04-25T04:05:12;13.27;;;11.88;;
787;SDS011;16074;42.708;23.312;2023-04-25T04:07:47;16.35;;;13.70;;
787;SDS011;16074;42.708;23.312;2023-04-25T04:10:16;17.05;;;15.00;;
787;SDS011;16074;42.708;23.312;2023-04-25T04:12:45;17.40;;;15.48;;
787;SDS011;16074;42.708;23.312;2023-04-25T04:15:13;18.63;;;16.63;;
787;SDS011;16074;42.708;23.312;2023-04-25T04:17:43;18.80;;;16.90;;
787;SDS011;16074;42.708;23.312;2023-04-25T04:20:15;20.80;;;17.00;;
787;SDS011;16074;42.708;23.312;2023-04-25T04:22:43;17.88;;;15.50;;
787;SDS011;16074;42.708;23.312;2023-04-25T04:25:13;19.60;;;16.30;;
787;SDS011;16074;42.708;23.312;2023-04-25T04:28:01;17.65;;;15.90;;
787;SDS011;16074;42.708;23.312;2023-04-25T04:31:00;18.55;;;15.50;;
787;SDS011;16074;42.708;23.312;2023-04-25T04:33:29;18.35;;;16.45;;
787;SDS011;16074;42.708;23.312;2023-04-25T04:36:03;19.58;;;17.70;;
787;SDS011;16074;42.708;23.312;2023-04-25T04:38:34;19.15;;;16.90;;
787;SDS011;16074;42.708;23.312;2023-04-25T04:41:05;18.85;;;16.00;;
787;SDS011;16074;42.708;23.312;2023-04-25T04:43:54;17.65;;;15.80;;
787;SDS011;16074;42.708;23.312;2023-04-25T04:46:48;15.52;;;13.98;;
787;SDS011;16074;42.708;23.312;2023-04-25T04:49:52;16.50;;;14.85;;
787;SDS011;16074;42.708;23.312;2023-04-25T04:52:31;17.50;;;15.70;;
787;SDS011;16074;42.708;23.312;2023-04-25T04:55:22;18.20;;;15.40;;
787;SDS011;16074;42.708;23.312;2023-04-25T04:58:03;18.67;;;16.73;;
787;SDS011;16074;42.708;23.312;2023-04-25T05:00:50;17.48;;;15.73;;
787;SDS011;16074;42.708;23.312;2023-04-25T05:03:42;18.05;;;16.02;;
787;SDS011;16074;42.708;23.312;2023-04-25T05:06:32;19.95;;;17.67;;
787;SDS011;16074;42.708;23.312;2023-04-25T05:09:28;24.35;;;18.75;;
787;SDS011;16074;42.708;23.312;2023-04-25T05:12:15;24.90;;;20.23;;
787;SDS011;16074;42.708;23.312;2023-04-25T05:15:02;25.65;;;19.92;;
787;SDS011;16074;42.708;23.312;2023-04-25T05:18:09;21.42;;;17.40;;
787;SDS011;16074;42.708;23.312;2023-04-25T05:20:44;18.95;;;16.17;;
787;SDS011;16074;42.708;23.312;2023-04-25T05:23:25;20.02;;;16.92;;
787;SDS011;16074;42.708;23.312;2023-04-25T05:26:10;17.50;;;15.60;;
787;SDS011;16074;42.708;23.312;2023-04-25T05:28:51;18.10;;;15.82;;
787;SDS011;16074;42.708;23.312;2023-04-25T05:31:22;19.75;;;15.50;;
787;SDS011;16074;42.708;23.312;2023-04-25T05:33:57;18.70;;;16.10;;
787;SDS011;16074;42.708;23.312;2023-04-25T05:36:36;19.58;;;17.58;;
787;SDS011;16074;42.708;23.312;2023-04-25T05:39:04;18.98;;;15.02;;
787;SDS011;16074;42.708;23.312;2023-04-25T05:42:07;17.85;;;15.90;;
787;SDS011;16074;42.708;23.312;2023-04-25T05:44:53;21.15;;;18.08;;
787;SDS011;16074;42.708;23.312;2023-04-25T05:47:28;24.52;;;21.95;;
787;SDS011;16074;42.708;23.312;2023-04-25T05:50:05;23.48;;;21.08;;
787;SDS011;16074;42.708;23.312;2023-04-25T05:53:02;21.65;;;19.42;;
787;SDS011;16074;42.708;23.312;2023-04-25T05:55:37;23.55;;;20.75;;
787;SDS011;16074;42.708;23.312;2023-04-25T05:58:25;23.08;;;19.63;;
787;SDS011;16074;42.708;23.312;2023-04-25T06:00:54;24.67;;;18.60;;
787;SDS011;16074;42.708;23.312;2023-04-25T06:03:22;19.27;;;17.27;;
787;SDS011;16074;42.708;23.312;2023-04-25T06:05:51;18.33;;;16.40;;
787;SDS011;16074;42.708;23.312;2023-04-25T06:08:20;17.77;;;15.93;;
787;SDS011;16074;42.708;23.312;2023-04-25T06:10:48;15.90;;;14.27;;
787;SDS011;16074;42.708;23.312;2023-04-25T06:13:16;15.50;;;14.00;;
787;SDS011;16074;42.708;23.312;2023-04-25T06:15:46;16.55;;;13.75;;
787;SDS011;16074;42.708;23.312;2023-04-25T06:18:14;13.23;;;11.93;;
787;SDS011;16074;42.708;23.312;2023-04-25T06:20:42;16.10;;;14.30;;
787;SDS011;16074;42.708;23.312;2023-04-25T06:23:11;16.95;;;15.23;;
787;SDS011;16074;42.708;23.312;2023-04-25T06:25:47;21.50;;;18.77;;
787;SDS011;16074;42.708;23.312;2023-04-25T06:28:15;23.42;;;20.60;;
787;SDS011;16074;42.708;23.312;2023-04-25T06:30:45;21.83;;;19.67;;
787;SDS011;16074;42.708;23.312;2023-04-25T06:33:17;23.35;;;18.77;;
787;SDS011;16074;42.708;23.312;2023-04-25T06:35:46;19.58;;;17.60;;
787;SDS011;16074;42.708;23.312;2023-04-25T06:38:17;15.68;;;13.50;;
787;SDS011;16074;42.708;23.312;2023-04-25T06:40:49;18.25;;;16.42;;
787;SDS011;16074;42.708;23.312;2023-04-25T06:43:18;18.48;;;13.68;;
787;SDS011;16074;42.708;23.312;2023-04-25T06:45:51;14.40;;;12.95;;
787;SDS011;16074;42.708;23.312;2023-04-25T06:48:21;15.45;;;13.95;;
787;SDS011;16074;42.708;23.312;2023-04-25T06:50:50;12.63;;;11.43;;
787;SDS011;16074;42.708;23.312;2023-04-25T06:53:19;13.05;;;11.77;;
787;SDS011;16074;42.708;23.312;2023-04-25T06:55:53;12.73;;;11.50;;
787;SDS011;16074;42.708;23.312;2023-04-25T06:58:22;13.75;;;12.38;;
787;SDS011;16074;42.708;23.312;2023-04-25T07:00:55;12.52;;;11.32;;
787;SDS011;16074;42.708;23.312;2023-04-25T07:03:25;12.50;;;11.20;;
787;SDS011;16074;42.708;23.312;2023-04-25T07:06:00;13.95;;;10.75;;
787;SDS011;16074;42.708;23.312;2023-04-25T07:08:29;12.02;;;10.82;;
787;SDS011;16074;42.708;23.312;2023-04-25T07:10:58;11.45;;;10.35;;
787;SDS011;16074;42.708;23.312;2023-04-25T07:13:27;15.13;;;11.75;;
787;SDS011;16074;42.708;23.312;2023-04-25T07:15:57;13.90;;;10.45;;
787;SDS011;16074;42.708;23.312;2023-04-25T07:18:27;12.15;;;10.93;;
787;SDS011;16074;42.708;23.312;2023-04-25T07:20:55;21.73;;;10.85;;
787;SDS011;16074;42.708;23.312;2023-04-25T07:23:24;13.00;;;11.48;;
787;SDS011;16074;42.708;23.312;2023-04-25T07:25:52;20.85;;;12.05;;
787;SDS011;16074;42.708;23.312;2023-04-25T07:28:23;12.55;;;11.20;;
787;SDS011;16074;42.708;23.312;2023-04-25T07:30:51;13.68;;;12.30;;
787;SDS011;16074;42.708;23.312;2023-04-25T07:33:21;13.82;;;12.35;;
787;SDS011;16074;42.708;23.312;2023-04-25T07:35:49;24.75;;;12.05;;
787;SDS011;16074;42.708;23.312;2023-04-25T07:38:18;12.85;;;11.45;;
787;SDS011;16074;42.708;23.312;2023-04-25T07:40:47;24.08;;;12.07;;
787;SDS011;16074;42.708;23.312;2023-04-25T07:43:16;12.67;;;10.90;;
787;SDS011;16074;42.708;23.312;2023-04-25T07:45:51;20.47;;;11.23;;
787;SDS011;16074;42.708;23.312;2023-04-25T07:48:22;11.87;;;10.00;;
787;SDS011;16074;42.708;23.312;2023-04-25T07:50:51;13.00;;;11.70;;
787;SDS011;16074;42.708;23.312;2023-04-25T07:53:20;13.43;;;12.17;;
787;SDS011;16074;42.708;23.312;2023-04-25T07:55:57;19.57;;;12.33;;
787;SDS011;16074;42.708;23.312;2023-04-25T07:58:27;13.00;;;11.67;;
787;SDS011;16074;42.708;23.312;2023-04-25T08:00:59;14.63;;;11.70;;
787;SDS011;16074;42.708;23.312;2023-04-25T08:03:54;12.70;;;10.20;;
787;SDS011;16074;42.708;23.312;2023-04-25T08:06:37;14.33;;;11.87;;
787;SDS011;16074;42.708;23.312;2023-04-25T08:09:10;11.50;;;10.40;;
787;SDS011;16074;42.708;23.312;2023-04-25T08:11:41;13.73;;;11.90;;
787;SDS011;16074;42.708;23.312;2023-04-25T08:14:13;19.63;;;11.77;;
787;SDS011;16074;42.708;23.312;2023-04-25T08:16:43;13.57;;;10.87;;
787;SDS011;16074;42.708;23.312;2023-04-25T08:19:14;15.27;;;12.97;;
787;SDS011;16074;42.708;23.312;2023-04-25T08:21:42;13.40;;;12.00;;
787;SDS011;16074;42.708;23.312;2023-04-25T08:24:15;18.23;;;11.40;;
787;SDS011;16074;42.708;23.312;2023-04-25T08:26:43;11.73;;;10.50;;
787;SDS011;16074;42.708;23.312;2023-04-25T08:29:14;11.97;;;10.90;;
787;SDS011;16074;42.708;23.312;2023-04-25T08:31:43;13.07;;;11.77;;
787;SDS011;16074;42.708;23.312;2023-04-25T08:34:14;13.73;;;12.00;;
787;SDS011;16074;42.708;23.312;2023-04-25T08:36:47;16.17;;;12.23;;
787;SDS011;16074;42.708;23.312;2023-04-25T08:39:23;12.90;;;11.80;;
787;SDS011;16074;42.708;23.312;2023-04-25T08:42:27;13.37;;;12.07;;
787;SDS011;16074;42.708;23.312;2023-04-25T08:44:57;11.07;;;10.00;;
787;SDS011;16074;42.708;23.312;2023-04-25T08:47:35;10.60;;;9.60;;
787;SDS011;16074;42.708;23.312;2023-04-25T08:50:08;10.23;;;9.40;;
787;SDS011;16074;42.708;23.312;2023-04-25T08:52:38;10.03;;;9.13;;
787;SDS011;16074;42.708;23.312;2023-04-25T08:55:11;9.50;;;8.60;;
787;SDS011;16074;42.708;23.312;2023-04-25T08:57:40;7.23;;;6.53;;
787;SDS011;16074;42.708;23.312;2023-04-25T09:00:10;7.43;;;6.70;;
787;SDS011;16074;42.708;23.312;2023-04-25T09:02:43;9.13;;;6.60;;
787;SDS011;16074;42.708;23.312;2023-04-25T09:05:13;11.37;;;9.07;;
787;SDS011;16074;42.708;23.312;2023-04-25T09:07:43;9.60;;;8.73;;
787;SDS011;16074;42.708;23.312;2023-04-25T09:10:14;9.40;;;8.60;;
787;SDS011;16074;42.708;23.312;2023-04-25T09:12:43;10.43;;;9.53;;
787;SDS011;16074;42.708;23.312;2023-04-25T09:15:12;14.23;;;10.80;;
787;SDS011;16074;42.708;23.312;2023-04-25T09:17:56;9.63;;;8.83;;
787;SDS011;16074;42.708;23.312;2023-04-25T09:20:32;10.63;;;9.70;;
787;SDS011;16074;42.708;23.312;2023-04-25T09:23:27;9.80;;;8.80;;
787;SDS011;16074;42.708;23.312;2023-04-25T09:25:56;11.30;;;10.20;;
787;SDS011;16074;42.708;23.312;2023-04-25T09:28:25;10.40;;;9.50;;
787;SDS011;16074;42.708;23.312;2023-04-25T09:30:59;11.43;;;10.23;;
787;SDS011;16074;42.708;23.312;2023-04-25T09:33:42;12.90;;;11.57;;
787;SDS011;16074;42.708;23.312;2023-04-25T09:36:12;11.43;;;10.50;;
787;SDS011;16074;42.708;23.312;2023-04-25T09:39:03;8.83;;;8.13;;
787;SDS011;16074;42.708;23.312;2023-04-25T09:41:50;8.73;;;7.93;;
787;SDS011;16074;42.708;23.312;2023-04-25T09:44:23;8.83;;;8.03;;
787;SDS011;16074;42.708;23.312;2023-04-25T09:46:52;7.80;;;7.07;;
787;SDS011;16074;42.708;23.312;2023-04-25T09:49:24;6.77;;;6.27;;
787;SDS011;16074;42.708;23.312;2023-04-25T09:52:05;6.50;;;5.97;;
787;SDS011;16074;42.708;23.312;2023-04-25T09:54:42;4.80;;;4.50;;
787;SDS011;16074;42.708;23.312;2023-04-25T09:57:18;4.93;;;4.60;;
787;SDS011;16074;42.708;23.312;2023-04-25T09:59:48;10.63;;;5.17;;
787;SDS011;16074;42.708;23.312;2023-04-25T10:02:17;5.17;;;4.80;;
787;SDS011;16074;42.708;23.312;2023-04-25T10:04:51;5.10;;;4.80;;
787;SDS011;16074;42.708;23.312;2023-04-25T10:07:30;4.73;;;4.30;;
787;SDS011;16074;42.708;23.312;2023-04-25T10:10:00;4.33;;;4.10;;
787;SDS011;16074;42.708;23.312;2023-04-25T10:12:30;5.53;;;5.03;;
787;SDS011;16074;42.708;23.312;2023-04-25T10:15:00;5.80;;;5.27;;
787;SDS011;16074;42.708;23.312;2023-04-25T10:17:31;5.10;;;4.70;;
787;SDS011;16074;42.708;23.312;2023-04-25T10:20:00;5.47;;;5.07;;
787;SDS011;16074;42.708;23.312;2023-04-25T10:22:32;3.20;;;3.10;;
787;SDS011;16074;42.708;23.312;2023-04-25T10:25:03;3.70;;;3.37;;
787;SDS011;16074;42.708;23.312;2023-04-25T10:27:35;3.13;;;2.60;;
787;SDS011;16074;42.708;23.312;2023-04-25T10:30:04;2.37;;;2.27;;
787;SDS011;16074;42.708;23.312;2023-04-25T10:32:36;3.03;;;2.83;;
787;SDS011;16074;42.708;23.312;2023-04-25T10:35:11;3.00;;;2.20;;
787;SDS011;16074;42.708;23.312;2023-04-25T10:37:59;2.27;;;1.47;;
787;SDS011;16074;42.708;23.312;2023-04-25T10:40:29;2.13;;;1.90;;
787;SDS011;16074;42.708;23.312;2023-04-25T10:45:59;2.70;;;2.50;;
787;SDS011;16074;42.708;23.312;2023-04-25T10:48:28;2.63;;;2.43;;
787;SDS011;16074;42.708;23.312;2023-04-25T10:51:06;2.70;;;2.07;;
787;SDS011;16074;42.708;23.312;2023-04-25T10:53:37;2.80;;;1.77;;
787;SDS011;16074;42.708;23.312;2023-04-25T10:56:09;1.50;;;1.40;;
787;SDS011;16074;42.708;23.312;2023-04-25T10:58:43;1.90;;;1.53;;
787;SDS011;16074;42.708;23.312;2023-04-25T11:01:14;2.23;;;2.03;;
787;SDS011;16074;42.708;23.312;2023-04-25T11:03:46;1.47;;;1.47;;
787;SDS011;16074;42.708;23.312;2023-04-25T11:06:20;1.30;;;1.30;;
787;SDS011;16074;42.708;23.312;2023-04-25T11:08:52;2.33;;;1.30;;
787;SDS011;16074;42.708;23.312;2023-04-25T11:11:21;1.57;;;1.47;;
787;SDS011;16074;42.708;23.312;2023-04-25T11:13:49;1.13;;;1.13;;
787;SDS011;16074;42.708;23.312;2023-04-25T11:16:17;1.83;;;1.20;;
787;SDS011;16074;42.708;23.312;2023-04-25T11:18:56;1.73;;;1.63;;
787;SDS011;16074;42.708;23.312;2023-04-25T11:21:25;2.10;;;2.00;;
787;SDS011;16074;42.708;23.312;2023-04-25T11:23:56;4.87;;;2.50;;
787;SDS011;16074;42.708;23.312;2023-04-25T11:26:25;2.40;;;2.10;;
787;SDS011;16074;42.708;23.312;2023-04-25T11:28:57;1.80;;;1.70;;
787;SDS011;16074;42.708;23.312;2023-04-25T11:31:26;2.50;;;2.10;;
787;SDS011;16074;42.708;23.312;2023-04-25T11:33:56;2.30;;;2.10;;
787;SDS011;16074;42.708;23.312;2023-04-25T11:36:25;1.53;;;1.43;;
787;SDS011;16074;42.708;23.312;2023-04-25T11:38:54;3.77;;;2.10;;
787;SDS011;16074;42.708;23.312;2023-04-25T11:41:24;2.80;;;2.60;;
787;SDS011;16074;42.708;23.312;2023-04-25T11:43:53;2.00;;;1.90;;
787;SDS011;16074;42.708;23.312;2023-04-25T11:46:22;6.60;;;5.00;;
787;SDS011;16074;42.708;23.312;2023-04-25T11:48:50;4.93;;;3.77;;
787;SDS011;16074;42.708;23.312;2023-04-25T11:51:19;2.07;;;1.90;;
787;SDS011;16074;42.708;23.312;2023-04-25T11:53:47;4.83;;;4.50;;
787;SDS011;16074;42.708;23.312;2023-04-25T11:56:16;2.87;;;2.67;;
787;SDS011;16074;42.708;23.312;2023-04-25T11:58:56;2.60;;;2.40;;
787;SDS011;16074;42.708;23.312;2023-04-25T12:01:28;1.70;;;1.70;;
787;SDS011;16074;42.708;23.312;2023-04-25T12:04:10;1.47;;;1.37;;
787;SDS011;16074;42.708;23.312;2023-04-25T12:06:40;6.20;;;1.47;;
787;SDS011;16074;42.708;23.312;2023-04-25T12:09:10;1.30;;;1.17;;
787;SDS011;16074;42.708;23.312;2023-04-25T12:11:43;1.53;;;1.47;;
787;SDS011;16074;42.708;23.312;2023-04-25T12:14:19;1.20;;;1.10;;
787;SDS011;16074;42.708;23.312;2023-04-25T12:16:49;1.67;;;1.53;;
787;SDS011;16074;42.708;23.312;2023-04-25T12:19:19;1.37;;;1.37;;
787;SDS011;16074;42.708;23.312;2023-04-25T12:21:48;5.80;;;1.20;;
787;SDS011;16074;42.708;23.312;2023-04-25T12:24:25;1.43;;;1.33;;
787;SDS011;16074;42.708;23.312;2023-04-25T12:26:58;3.87;;;3.50;;
787;SDS011;16074;42.708;23.312;2023-04-25T12:29:30;3.57;;;1.90;;
787;SDS011;16074;42.708;23.312;2023-04-25T12:32:13;8.07;;;3.50;;
787;SDS011;16074;42.708;23.312;2023-04-25T12:34:42;13.47;;;3.17;;
787;SDS011;16074;42.708;23.312;2023-04-25T12:37:10;3.70;;;2.20;;
787;SDS011;16074;42.708;23.312;2023-04-25T12:39:38;3.80;;;2.22;;
787;SDS011;16074;42.708;23.312;2023-04-25T12:42:07;3.55;;;2.55;;
787;SDS011;16074;42.708;23.312;2023-04-25T12:44:40;2.22;;;1.80;;
787;SDS011;16074;42.708;23.312;2023-04-25T12:47:08;2.28;;;2.17;;
787;SDS011;16074;42.708;23.312;2023-04-25T12:49:37;4.13;;;2.65;;
787;SDS011;16074;42.708;23.312;2023-04-25T12:52:05;2.90;;;2.70;;
787;SDS011;16074;42.708;23.312;2023-04-25T12:54:33;2.25;;;2.05;;
787;SDS011;16074;42.708;23.312;2023-04-25T12:57:02;2.53;;;2.42;;
787;SDS011;16074;42.708;23.312;2023-04-25T12:59:30;2.63;;;2.42;;
787;SDS011;16074;42.708;23.312;2023-04-25T13:02:00;2.55;;;2.45;;
787;SDS011;16074;42.708;23.312;2023-04-25T13:04:28;2.72;;;2.55;;
787;SDS011;16074;42.708;23.312;2023-04-25T13:06:57;3.33;;;3.13;;
787;SDS011;16074;42.708;23.312;2023-04-25T13:09:25;3.30;;;3.10;;
787;SDS011;16074;42.708;23.312;2023-04-25T13:11:54;3.22;;;3.03;;
787;SDS011;16074;42.708;23.312;2023-04-25T13:14:24;2.33;;;2.22;;
787;SDS011;16074;42.708;23.312;2023-04-25T13:16:53;3.30;;;3.17;;
787;SDS011;16074;42.708;23.312;2023-04-25T13:19:22;5.57;;;4.70;;
787;SDS011;16074;42.708;23.312;2023-04-25T13:21:52;5.30;;;4.80;;
787;SDS011;16074;42.708;23.312;2023-04-25T13:24:20;5.70;;;5.25;;
787;SDS011;16074;42.708;23.312;2023-04-25T13:26:48;5.88;;;5.40;;
787;SDS011;16074;42.708;23.312;2023-04-25T13:29:17;7.05;;;5.60;;
787;SDS011;16074;42.708;23.312;2023-04-25T13:31:45;5.25;;;4.75;;
787;SDS011;16074;42.708;23.312;2023-04-25T13:34:13;5.18;;;3.90;;
787;SDS011;16074;42.708;23.312;2023-04-25T13:36:43;4.50;;;4.30;;
787;SDS011;16074;42.708;23.312;2023-04-25T13:39:12;3.88;;;3.67;;
787;SDS011;16074;42.708;23.312;2023-04-25T13:41:40;5.82;;;4.35;;
787;SDS011;16074;42.708;23.312;2023-04-25T13:44:09;4.55;;;4.15;;
787;SDS011;16074;42.708;23.312;2023-04-25T13:46:37;5.03;;;4.63;;
787;SDS011;16074;42.708;23.312;2023-04-25T13:49:13;5.45;;;4.95;;
787;SDS011;16074;42.708;23.312;2023-04-25T13:51:43;6.25;;;5.82;;
787;SDS011;16074;42.708;23.312;2023-04-25T13:54:11;4.93;;;4.53;;
787;SDS011;16074;42.708;23.312;2023-04-25T13:56:40;5.63;;;5.22;;
787;SDS011;16074;42.708;23.312;2023-04-25T13:59:09;5.55;;;5.13;;
787;SDS011;16074;42.708;23.312;2023-04-25T14:01:37;5.90;;;5.40;;
787;SDS011;16074;42.708;23.312;2023-04-25T14:04:06;6.22;;;5.63;;
787;SDS011;16074;42.708;23.312;2023-04-25T14:06:34;7.38;;;5.90;;
787;SDS011;16074;42.708;23.312;2023-04-25T14:09:05;6.78;;;6.07;;
787;SDS011;16074;42.708;23.312;2023-04-25T14:11:36;5.53;;;5.10;;
787;SDS011;16074;42.708;23.312;2023-04-25T14:14:05;6.10;;;5.13;;
787;SDS011;16074;42.708;23.312;2023-04-25T14:16:33;7.93;;;7.32;;
787;SDS011;16074;42.708;23.312;2023-04-25T14:19:01;9.85;;;8.40;;
787;SDS011;16074;42.708;23.312;2023-04-25T14:21:29;5.85;;;5.38;;
787;SDS011;16074;42.708;23.312;2023-04-25T14:23:59;3.55;;;3.35;;
787;SDS011;16074;42.708;23.312;2023-04-25T14:26:29;1.88;;;1.77;;
787;SDS011;16074;42.708;23.312;2023-04-25T14:28:57;2.70;;;2.53;;
787;SDS011;16074;42.708;23.312;2023-04-25T14:31:26;6.80;;;6.15;;
787;SDS011;16074;42.708;23.312;2023-04-25T14:33:55;3.00;;;2.90;;
787;SDS011;16074;42.708;23.312;2023-04-25T14:36:25;2.85;;;2.60;;
787;SDS011;16074;42.708;23.312;2023-04-25T14:38:54;4.65;;;4.18;;
787;SDS011;16074;42.708;23.312;2023-04-25T14:41:22;5.20;;;3.97;;
787;SDS011;16074;42.708;23.312;2023-04-25T14:43:53;3.47;;;3.22;;
787;SDS011;16074;42.708;23.312;2023-04-25T14:46:22;3.70;;;3.40;;
787;SDS011;16074;42.708;23.312;2023-04-25T14:48:51;3.77;;;3.47;;
787;SDS011;16074;42.708;23.312;2023-04-25T14:51:19;3.17;;;3.00;;
787;SDS011;16074;42.708;23.312;2023-04-25T14:53:48;2.83;;;2.67;;
787;SDS011;16074;42.708;23.312;2023-04-25T14:56:17;2.90;;;2.80;;
787;SDS011;16074;42.708;23.312;2023-04-25T14:58:45;2.53;;;2.33;;
787;SDS011;16074;42.708;23.312;2023-04-25T15:01:15;3.73;;;3.43;;
787;SDS011;16074;42.708;23.312;2023-04-25T15:03:43;3.60;;;3.40;;
787;SDS011;16074;42.708;23.312;2023-04-25T15:06:12;3.13;;;2.93;;
787;SDS011;16074;42.708;23.312;2023-04-25T15:08:40;4.30;;;3.70;;
787;SDS011;16074;42.708;23.312;2023-04-25T15:11:08;3.70;;;3.40;;
787;SDS011;16074;42.708;23.312;2023-04-25T15:13:37;4.70;;;4.40;;
787;SDS011;16074;42.708;23.312;2023-04-25T15:16:06;4.77;;;4.47;;
787;SDS011;16074;42.708;23.312;2023-04-25T15:18:36;3.50;;;3.30;;
787;SDS011;16074;42.708;23.312;2023-04-25T15:21:04;3.43;;;3.03;;